createdAt,value
2023-02-24T00:00:47.330Z,21.73
2023-02-24T00:03:15.223Z,21.17
2023-02-24T00:05:47.600Z,20.53
2023-02-24T00:08:16.787Z,17.87
2023-02-24T00:10:44.651Z,19.93
2023-02-24T00:13:13.018Z,19.60
2023-02-24T00:15:41.187Z,19.77
2023-02-24T00:18:09.252Z,17.70
2023-02-24T00:20:37.293Z,19.63
2023-02-24T00:23:05.050Z,16.87
2023-02-24T00:25:34.259Z,19.63
2023-02-24T00:28:02.258Z,19.47
2023-02-24T00:30:32.787Z,19.37
2023-02-24T00:33:02.283Z,26.30
2023-02-24T00:35:31.897Z,22.57
2023-02-24T00:37:59.773Z,23.87
2023-02-24T00:40:30.237Z,24.17
2023-02-24T00:42:59.533Z,28.40
2023-02-24T00:45:30.822Z,28.40
2023-02-24T00:47:58.777Z,24.50
2023-02-24T00:50:26.616Z,25.23
2023-02-24T00:52:54.477Z,21.67
2023-02-24T00:55:23.251Z,23.93
2023-02-24T00:57:51.453Z,22.67
2023-02-24T01:00:21.889Z,26.87
2023-02-24T01:02:49.824Z,25.57
2023-02-24T01:05:17.790Z,26.87
2023-02-24T01:07:45.553Z,27.20
2023-02-24T01:10:13.386Z,25.07
2023-02-24T01:12:49.595Z,24.80
2023-02-24T01:15:19.105Z,27.63
2023-02-24T01:17:48.345Z,23.53
2023-02-24T01:20:18.252Z,19.93
2023-02-24T01:22:51.074Z,21.23
2023-02-24T01:25:20.534Z,20.73
2023-02-24T01:27:48.788Z,23.63
2023-02-24T01:30:18.323Z,23.73
2023-02-24T01:32:47.931Z,24.90
2023-02-24T01:35:17.659Z,26.67
2023-02-24T01:37:46.246Z,27.37
2023-02-24T01:40:21.009Z,28.77
2023-02-24T01:42:49.396Z,31.50
2023-02-24T01:45:24.895Z,21.27
2023-02-24T01:47:53.914Z,24.43
2023-02-24T01:50:26.219Z,29.80
2023-02-24T01:52:58.800Z,29.97
2023-02-24T01:55:32.030Z,31.87
2023-02-24T01:58:23.580Z,25.37
2023-02-24T02:00:51.824Z,33.37
2023-02-24T02:03:29.680Z,26.63
2023-02-24T02:06:01.699Z,29.13
2023-02-24T02:08:30.229Z,29.07
2023-02-24T02:11:04.061Z,29.67
2023-02-24T02:13:36.722Z,32.33
2023-02-24T02:16:21.808Z,29.77
2023-02-24T02:18:56.404Z,24.93
2023-02-24T02:22:02.498Z,25.07
2023-02-24T02:24:50.427Z,23.60
2023-02-24T02:27:34.935Z,25.40
2023-02-24T02:30:38.306Z,24.17
2023-02-24T02:33:39.497Z,24.83
2023-02-24T02:36:18.516Z,26.83
2023-02-24T02:38:54.521Z,19.07
2023-02-24T02:41:28.433Z,22.43
2023-02-24T02:44:08.499Z,26.43
2023-02-24T02:46:42.645Z,27.33
2023-02-24T02:49:18.103Z,24.87
2023-02-24T02:51:52.931Z,28.83
2023-02-24T02:54:28.256Z,26.03
2023-02-24T02:57:02.798Z,22.87
2023-02-24T02:59:33.541Z,25.37
2023-02-24T03:02:11.663Z,25.20
2023-02-24T03:04:51.859Z,31.17
2023-02-24T03:07:23.744Z,29.53
2023-02-24T03:09:56.029Z,24.13
2023-02-24T03:12:25.934Z,25.63
2023-02-24T03:14:59.404Z,28.93
2023-02-24T03:17:31.126Z,25.73
2023-02-24T03:20:12.284Z,27.33
2023-02-24T03:22:46.285Z,22.77
2023-02-24T03:25:16.824Z,22.83
2023-02-24T03:27:51.497Z,25.13
2023-02-24T03:30:26.793Z,20.27
2023-02-24T03:32:59.086Z,19.10
2023-02-24T03:35:34.345Z,18.30
2023-02-24T03:38:06.329Z,25.30
2023-02-24T03:40:36.220Z,21.03
2023-02-24T03:43:09.315Z,23.17
2023-02-24T03:45:39.315Z,21.97
2023-02-24T03:48:09.239Z,18.50
2023-02-24T03:50:39.725Z,20.57
2023-02-24T03:53:35.673Z,17.40
2023-02-24T03:56:17.400Z,13.37
2023-02-24T03:59:00.419Z,18.40
2023-02-24T04:01:36.231Z,22.03
2023-02-24T04:04:11.007Z,18.83
2023-02-24T04:07:09.779Z,20.13
2023-02-24T04:09:47.580Z,12.83
2023-02-24T04:12:22.490Z,12.97
2023-02-24T04:15:08.639Z,15.27
2023-02-24T04:17:41.665Z,12.73
2023-02-24T04:20:16.436Z,12.37
2023-02-24T04:22:54.488Z,12.63
2023-02-24T04:25:27.157Z,11.57
2023-02-24T04:28:00.596Z,16.20
2023-02-24T04:30:32.231Z,16.40
2023-02-24T04:33:00.296Z,12.97
2023-02-24T04:35:29.086Z,15.67
2023-02-24T04:37:58.084Z,16.40
2023-02-24T04:40:28.024Z,13.53
2023-02-24T04:42:56.064Z,15.00
2023-02-24T04:45:25.608Z,18.40
2023-02-24T04:48:00.813Z,13.87
2023-02-24T04:50:30.820Z,16.10
2023-02-24T04:53:01.574Z,17.47
2023-02-24T04:55:33.342Z,19.90
2023-02-24T04:58:02.267Z,18.13
2023-02-24T05:00:35.281Z,12.87
2023-02-24T05:03:05.682Z,16.20
2023-02-24T05:05:34.234Z,22.83
2023-02-24T05:08:04.001Z,20.57
2023-02-24T05:10:38.932Z,17.17
2023-02-24T05:13:07.776Z,23.80
2023-02-24T05:15:39.739Z,14.87
2023-02-24T05:18:14.105Z,23.07
2023-02-24T05:21:03.801Z,17.77
2023-02-24T05:23:34.336Z,24.83
2023-02-24T05:26:08.566Z,20.50
2023-02-24T05:28:37.674Z,19.87
2023-02-24T05:31:08.501Z,21.93
2023-02-24T05:33:37.708Z,20.77
2023-02-24T05:36:15.655Z,16.60
2023-02-24T05:38:57.933Z,21.20
2023-02-24T05:41:32.596Z,17.87
2023-02-24T05:44:04.925Z,15.53
2023-02-24T05:46:37.630Z,19.50
2023-02-24T05:49:09.454Z,16.87
2023-02-24T05:51:43.303Z,17.37
2023-02-24T05:54:13.910Z,18.77
2023-02-24T05:56:43.746Z,19.40
2023-02-24T05:59:18.245Z,23.07
2023-02-24T06:01:46.590Z,22.57
2023-02-24T06:04:20.953Z,21.47
2023-02-24T06:06:52.520Z,20.40
2023-02-24T06:09:23.296Z,21.27
2023-02-24T06:11:52.612Z,16.60
2023-02-24T06:14:21.429Z,19.43
2023-02-24T06:16:49.476Z,16.40
2023-02-24T06:19:17.693Z,21.03
2023-02-24T06:21:46.116Z,18.03
2023-02-24T06:24:15.052Z,14.63
2023-02-24T06:26:44.107Z,15.83
2023-02-24T06:29:15.621Z,17.90
2023-02-24T06:31:44.233Z,14.97
2023-02-24T06:34:13.246Z,18.00
2023-02-24T06:36:41.229Z,17.97
2023-02-24T06:39:09.168Z,16.57
2023-02-24T06:41:37.890Z,17.33
2023-02-24T06:44:05.768Z,11.73
2023-02-24T06:46:34.852Z,18.37
2023-02-24T06:49:02.923Z,18.50
2023-02-24T06:51:30.891Z,16.63
2023-02-24T06:53:59.649Z,14.97
2023-02-24T06:56:29.567Z,13.43
2023-02-24T06:58:59.221Z,19.70
2023-02-24T07:01:29.159Z,13.83
2023-02-24T07:04:20.438Z,10.27
2023-02-24T07:06:52.506Z,11.60
2023-02-24T07:09:22.789Z,11.10
2023-02-24T07:11:52.946Z,12.97
2023-02-24T07:14:22.997Z,14.97
2023-02-24T07:16:54.368Z,11.83
2023-02-24T07:19:25.536Z,12.57
2023-02-24T07:22:00.037Z,12.60
2023-02-24T07:24:33.001Z,15.77
2023-02-24T07:27:02.570Z,18.87
2023-02-24T07:32:25.377Z,11.90
2023-02-24T07:34:54.751Z,12.90
2023-02-24T07:37:24.248Z,11.43
2023-02-24T07:39:52.405Z,16.57
2023-02-24T07:42:20.182Z,10.93
2023-02-24T07:44:55.125Z,16.83
2023-02-24T07:47:23.001Z,13.40
2023-02-24T07:49:51.148Z,23.03
2023-02-24T07:52:20.331Z,16.73
2023-02-24T07:54:49.680Z,16.13
2023-02-24T07:57:18.825Z,10.37
2023-02-24T07:59:47.252Z,18.50
2023-02-24T08:02:15.978Z,10.50
2023-02-24T08:04:50.421Z,13.43
2023-02-24T08:07:24.988Z,15.67
2023-02-24T08:10:14.260Z,12.23
2023-02-24T08:12:47.560Z,12.97
2023-02-24T08:15:18.324Z,14.47
2023-02-24T08:17:47.500Z,12.90
2023-02-24T08:20:29.818Z,10.43
2023-02-24T08:22:59.085Z,11.17
2023-02-24T08:25:35.560Z,14.50
2023-02-24T08:28:09.494Z,9.00
2023-02-24T08:30:40.162Z,8.73
2023-02-24T08:33:10.149Z,17.63
2023-02-24T08:35:44.474Z,10.70
2023-02-24T08:38:17.436Z,15.87
2023-02-24T08:40:54.735Z,11.23
2023-02-24T08:43:32.760Z,13.80
2023-02-24T08:46:06.489Z,11.10
2023-02-24T08:48:42.295Z,13.77
2023-02-24T08:51:14.939Z,15.97
2023-02-24T08:53:46.753Z,15.40
2023-02-24T08:56:23.994Z,15.97
2023-02-24T08:58:56.958Z,14.73
2023-02-24T09:01:27.574Z,13.43
2023-02-24T09:03:59.229Z,16.47
2023-02-24T09:06:37.362Z,10.87
2023-02-24T09:09:21.113Z,9.97
2023-02-24T09:11:55.623Z,12.37
2023-02-24T09:14:28.399Z,15.73
2023-02-24T09:17:06.118Z,16.33
2023-02-24T09:20:01.649Z,21.47
2023-02-24T09:22:31.710Z,14.03
2023-02-24T09:25:20.758Z,14.00
2023-02-24T09:27:54.930Z,9.50
2023-02-24T09:30:42.469Z,12.70
2023-02-24T09:33:18.666Z,10.87
2023-02-24T09:36:09.757Z,10.80
2023-02-24T09:38:57.027Z,9.57
2023-02-24T09:41:34.133Z,12.17
2023-02-24T09:44:07.420Z,10.27
2023-02-24T09:46:53.887Z,12.53
2023-02-24T09:49:25.174Z,10.00
2023-02-24T09:52:00.393Z,11.10
2023-02-24T09:54:32.831Z,15.63
2023-02-24T09:57:09.573Z,14.73
2023-02-24T10:00:00.929Z,10.00
2023-02-24T10:02:44.554Z,12.00
2023-02-24T10:05:24.734Z,7.17
2023-02-24T10:07:53.190Z,11.63
2023-02-24T10:10:28.148Z,12.87
2023-02-24T10:13:02.214Z,14.60
2023-02-24T10:15:58.984Z,10.70
2023-02-24T10:18:32.950Z,9.63
2023-02-24T10:21:15.423Z,11.37
2023-02-24T10:23:59.577Z,12.80
2023-02-24T10:26:57.914Z,11.03
2023-02-24T10:29:43.261Z,13.27
2023-02-24T10:32:24.088Z,12.63
2023-02-24T10:34:53.061Z,12.73
2023-02-24T10:37:28.556Z,12.67
2023-02-24T10:39:59.009Z,12.17
2023-02-24T10:42:31.641Z,8.07
2023-02-24T10:45:18.356Z,8.03
2023-02-24T10:47:56.518Z,11.53
2023-02-24T10:50:30.998Z,10.27
2023-02-24T10:53:26.452Z,12.60
2023-02-24T10:56:14.811Z,12.53
2023-02-24T10:58:56.525Z,10.83
2023-02-24T11:01:43.593Z,7.50
2023-02-24T11:04:33.331Z,13.13
2023-02-24T11:07:09.785Z,8.37
2023-02-24T11:09:44.155Z,9.47
2023-02-24T11:12:38.329Z,12.37
2023-02-24T11:15:34.023Z,11.80
2023-02-24T11:18:03.769Z,11.83
2023-02-24T11:20:48.608Z,9.07
2023-02-24T11:23:19.964Z,12.50
2023-02-24T11:25:50.668Z,15.80
2023-02-24T11:28:30.640Z,9.77
2023-02-24T11:31:11.015Z,10.27
2023-02-24T11:33:46.325Z,10.73
2023-02-24T11:36:22.622Z,10.00
2023-02-24T11:39:17.260Z,9.33
2023-02-24T11:41:53.264Z,11.17
2023-02-24T11:44:28.273Z,10.40
2023-02-24T11:46:59.542Z,8.83
2023-02-24T11:49:34.338Z,12.33
2023-02-24T11:52:04.981Z,14.07
2023-02-24T11:54:39.812Z,10.40
2023-02-24T11:57:15.382Z,9.00
2023-02-24T11:59:47.288Z,8.63
2023-02-24T12:02:21.107Z,15.23
2023-02-24T12:04:59.570Z,10.93
2023-02-24T12:07:45.340Z,9.07
2023-02-24T12:10:20.107Z,11.13
2023-02-24T12:12:53.970Z,11.40
2023-02-24T12:15:26.229Z,12.97
2023-02-24T12:18:04.276Z,10.83
2023-02-24T12:20:38.335Z,10.73
2023-02-24T12:23:18.339Z,11.97
2023-02-24T12:26:08.795Z,10.37
2023-02-24T12:29:00.131Z,15.60
2023-02-24T12:31:39.123Z,13.80
2023-02-24T12:34:14.502Z,10.20
2023-02-24T12:37:07.555Z,10.53
2023-02-24T12:39:47.313Z,12.67
2023-02-24T12:42:25.760Z,18.20
2023-02-24T12:45:12.478Z,13.67
2023-02-24T12:47:57.384Z,12.60
2023-02-24T12:50:45.659Z,11.70
2023-02-24T12:53:22.958Z,13.67
2023-02-24T12:56:02.147Z,10.37
2023-02-24T12:58:34.073Z,14.80
2023-02-24T13:01:12.019Z,10.20
2023-02-24T13:04:03.328Z,13.83
2023-02-24T13:07:00.963Z,14.83
2023-02-24T13:09:38.996Z,14.83
2023-02-24T13:12:15.442Z,12.90
2023-02-24T13:14:44.344Z,15.57
2023-02-24T13:17:23.049Z,17.30
2023-02-24T13:19:53.036Z,11.27
2023-02-24T13:22:25.826Z,13.50
2023-02-24T13:25:01.054Z,14.37
2023-02-24T13:27:30.469Z,12.80
2023-02-24T13:30:01.206Z,10.17
2023-02-24T13:32:32.716Z,16.77
2023-02-24T13:35:02.519Z,14.10
2023-02-24T13:37:34.475Z,13.83
2023-02-24T13:40:22.255Z,10.90
2023-02-24T13:42:59.511Z,12.37
2023-02-24T13:45:29.075Z,12.10
2023-02-24T13:48:19.344Z,12.60
2023-02-24T13:51:04.091Z,11.70
2023-02-24T13:53:44.998Z,15.37
2023-02-24T13:56:27.677Z,12.17
2023-02-24T13:59:12.766Z,14.07
2023-02-24T14:01:50.397Z,14.53
2023-02-24T14:04:22.063Z,9.97
2023-02-24T14:06:53.752Z,13.60
2023-02-24T14:09:26.061Z,11.07
2023-02-24T14:12:00.110Z,9.37
2023-02-24T14:14:29.159Z,12.37
2023-02-24T14:16:57.132Z,15.43
2023-02-24T14:19:26.857Z,7.97
2023-02-24T14:21:56.355Z,7.73
2023-02-24T14:24:25.244Z,11.10
2023-02-24T14:26:58.312Z,13.57
2023-02-24T14:29:31.796Z,11.50
2023-02-24T14:32:00.291Z,15.43
2023-02-24T14:34:34.767Z,11.80
2023-02-24T14:37:05.144Z,8.80
2023-02-24T14:39:35.258Z,10.77
2023-02-24T14:42:13.594Z,7.70
2023-02-24T14:44:44.699Z,10.43
2023-02-24T14:47:15.293Z,8.87
2023-02-24T14:49:52.357Z,9.97
2023-02-24T14:52:29.689Z,9.77
2023-02-24T14:55:03.437Z,10.57
2023-02-24T14:57:36.815Z,9.87
2023-02-24T15:00:11.663Z,11.27
2023-02-24T15:02:44.748Z,13.07
2023-02-24T15:05:13.062Z,10.33
2023-02-24T15:07:47.467Z,11.43
2023-02-24T15:10:22.158Z,12.10
2023-02-24T15:12:54.987Z,7.57
2023-02-24T15:15:24.875Z,13.50
2023-02-24T15:17:55.731Z,13.60
2023-02-24T15:20:30.246Z,8.70
2023-02-24T15:22:58.217Z,10.63
2023-02-24T15:25:41.995Z,15.10
2023-02-24T15:28:25.825Z,10.87
2023-02-24T15:31:03.130Z,11.47
2023-02-24T15:33:36.193Z,10.43
2023-02-24T15:36:09.741Z,13.93
2023-02-24T15:38:39.586Z,11.27
2023-02-24T15:41:08.773Z,11.97
2023-02-24T15:43:40.143Z,13.37
2023-02-24T15:46:23.148Z,9.13
2023-02-24T15:48:54.070Z,10.40
2023-02-24T15:51:32.005Z,12.07
2023-02-24T15:54:02.011Z,13.17
2023-02-24T15:56:30.178Z,11.70
2023-02-24T15:59:02.388Z,9.77
2023-02-24T16:01:31.333Z,10.37
2023-02-24T16:03:59.608Z,14.57
2023-02-24T16:06:29.471Z,14.33
2023-02-24T16:08:58.655Z,13.17
2023-02-24T16:11:29.962Z,10.17
2023-02-24T16:14:00.924Z,11.77
2023-02-24T16:16:29.511Z,9.40
2023-02-24T16:18:57.825Z,10.40
2023-02-24T16:21:25.690Z,13.57
2023-02-24T16:23:53.421Z,10.70
2023-02-24T16:26:23.967Z,10.47
2023-02-24T16:28:54.892Z,11.70
2023-02-24T16:31:26.062Z,11.43
2023-02-24T16:33:55.977Z,9.67
2023-02-24T16:36:25.797Z,14.03
2023-02-24T16:38:53.819Z,11.47
2023-02-24T16:41:21.906Z,16.03
2023-02-24T16:43:49.929Z,13.27
2023-02-24T16:46:20.129Z,12.00
2023-02-24T16:48:53.151Z,11.80
2023-02-24T16:51:21.447Z,12.53
2023-02-24T16:53:49.193Z,9.57
2023-02-24T16:56:16.973Z,16.50
2023-02-24T16:58:44.937Z,13.00
2023-02-24T17:01:19.376Z,9.20
2023-02-24T17:03:50.721Z,10.50
2023-02-24T17:06:20.813Z,14.63
2023-02-24T17:08:50.425Z,20.03
2023-02-24T17:11:20.459Z,12.07
2023-02-24T17:13:48.287Z,16.97
2023-02-24T17:16:15.982Z,12.53
2023-02-24T17:18:43.687Z,15.27
2023-02-24T17:21:14.273Z,12.63
2023-02-24T17:23:42.502Z,14.03
2023-02-24T17:26:14.460Z,16.63
2023-02-24T17:28:42.242Z,16.97
2023-02-24T17:31:10.329Z,14.97
2023-02-24T17:33:38.077Z,14.40
2023-02-24T17:36:06.097Z,12.57
2023-02-24T17:38:35.218Z,16.60
2023-02-24T17:41:03.252Z,15.20
2023-02-24T17:43:30.978Z,14.07
2023-02-24T17:45:58.909Z,17.77
2023-02-24T17:48:26.687Z,15.67
2023-02-24T17:50:54.467Z,14.00
2023-02-24T17:53:22.321Z,12.50
2023-02-24T17:56:02.229Z,13.33
2023-02-24T17:58:31.784Z,13.23
2023-02-24T18:01:01.886Z,14.07
2023-02-24T18:03:30.172Z,16.97
2023-02-24T18:06:02.352Z,15.83
2023-02-24T18:08:30.681Z,19.00
2023-02-24T18:11:00.926Z,17.70
2023-02-24T18:13:29.225Z,15.20
2023-02-24T18:15:57.434Z,14.67
2023-02-24T18:18:25.524Z,16.13
2023-02-24T18:20:53.528Z,13.57
2023-02-24T18:23:21.519Z,13.60
2023-02-24T18:25:49.399Z,16.57
2023-02-24T18:28:18.501Z,16.40
2023-02-24T18:30:46.778Z,18.23
2023-02-24T18:33:14.841Z,13.90
2023-02-24T18:35:42.784Z,17.20
2023-02-24T18:38:13.705Z,17.43
2023-02-24T18:40:41.537Z,16.00
2023-02-24T18:43:09.209Z,12.90
2023-02-24T18:45:38.477Z,17.73
2023-02-24T18:48:06.334Z,15.07
2023-02-24T18:54:27.194Z,13.03
2023-02-24T18:56:54.952Z,16.67
2023-02-24T18:59:22.596Z,13.53
2023-02-24T19:01:51.646Z,16.70
2023-02-24T19:04:19.447Z,12.00
2023-02-24T19:06:49.030Z,13.90
2023-02-24T19:09:18.348Z,8.83
2023-02-24T19:11:46.128Z,8.37
2023-02-24T19:14:14.355Z,10.40
2023-02-24T19:16:42.618Z,10.63
2023-02-24T19:19:14.287Z,6.43
2023-02-24T19:21:44.097Z,4.27
2023-02-24T19:24:13.872Z,3.77
2023-02-24T19:26:42.618Z,6.00
2023-02-24T19:29:10.968Z,5.80
2023-02-24T19:31:39.731Z,9.10
2023-02-24T19:34:09.446Z,7.13
2023-02-24T19:36:39.188Z,5.97
2023-02-24T19:39:10.262Z,4.47
2023-02-24T19:41:38.392Z,3.67
2023-02-24T19:44:06.349Z,7.37
2023-02-24T19:46:34.321Z,4.67
2023-02-24T19:49:02.511Z,5.90
2023-02-24T19:51:31.311Z,5.37
2023-02-24T19:54:03.190Z,7.67
2023-02-24T19:56:33.668Z,6.10
2023-02-24T19:59:02.386Z,9.47
2023-02-24T20:01:31.123Z,6.37
2023-02-24T20:04:01.186Z,2.63
2023-02-24T20:06:31.778Z,6.73
2023-02-24T20:09:01.786Z,5.07
2023-02-24T20:11:30.412Z,7.13
2023-02-24T20:13:58.175Z,9.57
2023-02-24T20:16:27.257Z,8.63
2023-02-24T20:18:56.141Z,3.97
2023-02-24T20:21:24.314Z,6.87
2023-02-24T20:23:52.410Z,6.37
2023-02-24T20:26:21.867Z,6.47
2023-02-24T20:28:49.769Z,9.47
2023-02-24T20:31:19.559Z,8.07
2023-02-24T20:33:49.579Z,7.10
2023-02-24T20:36:20.637Z,9.13
2023-02-24T20:38:49.224Z,7.80
2023-02-24T20:41:17.272Z,9.93
2023-02-24T20:43:46.521Z,8.23
2023-02-24T20:46:18.661Z,6.80
2023-02-24T20:48:46.627Z,8.17
2023-02-24T20:51:14.443Z,8.43
2023-02-24T20:53:56.154Z,9.50
2023-02-24T20:56:27.007Z,9.93
2023-02-24T20:59:00.916Z,11.27
2023-02-24T21:01:29.727Z,8.60
2023-02-24T21:04:02.574Z,9.43
2023-02-24T21:06:33.490Z,9.17
2023-02-24T21:09:01.687Z,9.47
2023-02-24T21:11:31.143Z,7.63
2023-02-24T21:14:00.756Z,11.13
2023-02-24T21:16:29.259Z,5.33
2023-02-24T21:18:58.693Z,11.07
2023-02-24T21:21:27.478Z,7.43
2023-02-24T21:23:59.425Z,9.47
2023-02-24T21:26:29.161Z,8.27
2023-02-24T21:28:59.164Z,8.97
2023-02-24T21:31:29.030Z,5.73
2023-02-24T21:33:57.234Z,9.10
2023-02-24T21:36:27.682Z,7.60
2023-02-24T21:38:55.661Z,10.73
2023-02-24T21:41:24.361Z,7.87
2023-02-24T21:43:56.263Z,9.20
2023-02-24T21:46:27.994Z,7.17
2023-02-24T21:48:58.408Z,8.10
2023-02-24T21:51:27.692Z,8.03
2023-02-24T21:53:56.003Z,7.60
2023-02-24T21:56:26.078Z,9.73
2023-02-24T21:58:57.323Z,10.63
2023-02-24T22:01:27.863Z,11.13
2023-02-24T22:03:58.520Z,10.27
2023-02-24T22:06:31.784Z,9.97
2023-02-24T22:09:00.413Z,10.77
2023-02-24T22:11:28.736Z,10.57
2023-02-24T22:13:56.469Z,9.43
2023-02-24T22:16:26.330Z,10.43
2023-02-24T22:18:55.656Z,9.50
2023-02-24T22:21:27.259Z,9.07
2023-02-24T22:23:59.264Z,8.13
2023-02-24T22:26:28.463Z,12.13
2023-02-24T22:28:56.916Z,10.67
2023-02-24T22:31:26.867Z,9.67
2023-02-24T22:33:55.105Z,9.50
2023-02-24T22:36:26.533Z,12.73
2023-02-24T22:38:55.542Z,11.73
2023-02-24T22:41:25.301Z,9.80
2023-02-24T22:43:53.870Z,13.50
2023-02-24T22:46:24.399Z,10.83
2023-02-24T22:48:52.513Z,10.67
2023-02-24T22:51:20.811Z,10.97
2023-02-24T22:53:50.693Z,13.77
2023-02-24T22:56:21.110Z,18.83
2023-02-24T22:58:49.089Z,16.90
2023-02-24T23:01:19.304Z,15.50
2023-02-24T23:03:50.772Z,8.70
2023-02-24T23:06:22.266Z,11.23
2023-02-24T23:08:52.724Z,9.80
2023-02-24T23:11:24.786Z,12.40
2023-02-24T23:13:52.923Z,12.23
2023-02-24T23:16:23.578Z,14.00
2023-02-24T23:18:53.798Z,15.60
2023-02-24T23:21:26.629Z,13.27
2023-02-24T23:23:57.101Z,11.30
2023-02-24T23:26:29.619Z,14.77
2023-02-24T23:28:57.842Z,11.43
2023-02-24T23:31:25.973Z,11.97
2023-02-24T23:33:54.776Z,12.20
2023-02-24T23:36:24.450Z,13.17
2023-02-24T23:38:52.753Z,18.40
2023-02-24T23:41:22.091Z,15.27
2023-02-24T23:43:49.842Z,16.73
2023-02-24T23:46:17.715Z,15.13
2023-02-24T23:48:45.751Z,13.13
2023-02-24T23:51:16.207Z,12.17
2023-02-24T23:53:45.991Z,11.40
2023-02-24T23:56:16.295Z,13.23
2023-02-24T23:58:46.586Z,11.40
